Time;durP1;ratioP1;P1;durP2;ratioP2;P2;SDS_P1;SDS_P2;PMS_P1;PMS_P2;Temp;Humidity;BMP_temperature;BMP_pressure;BME280_temperature;BME280_humidity;BME280_pressure;Samples;Min_cycle;Max_cycle;Signal;HPM_P1;HPM_P2
2022/12/27 00:00:28;;;;;;;;;;;;;;;10.90;75.92;101643.31;4955828;29;19914;-80
2022/12/27 00:03:12;;;;;;;;;;;;;;;10.85;76.19;101648.84;4956371;28;19915;-80
2022/12/27 00:05:57;;;;;;;;;;;;;;;10.85;76.15;101652.38;4954650;29;19914;-84
2022/12/27 00:08:42;;;;;;;;;;;;;;;10.86;76.21;101645.81;4966777;28;19914;-81
2022/12/27 00:11:28;;;;;;;;;;;;;;;10.87;76.39;101644.69;4979119;28;19915;-79
2022/12/27 00:14:13;;;;;;;;;;;;;;;10.90;75.99;101646.84;4970786;28;19953;-82
2022/12/27 00:16:58;;;;;;;;;;;;;;;10.96;75.95;101639.44;4971271;28;19919;-80
2022/12/27 00:19:42;;;;;;;;;;;;;;;11.06;75.52;101644.72;4956503;28;19922;-80
2022/12/27 00:22:27;;;;;;;;;;;;;;;11.01;75.72;101642.88;4969159;28;20395;-82
2022/12/27 00:25:12;;;;;;;;;;;;;;;10.98;75.76;101645.38;4960267;28;19915;-80
2022/12/27 00:27:56;;;;;;;;;;;;;;;10.90;76.23;101646.84;4959511;28;19914;-79
2022/12/27 00:30:40;;;;;;;;;;;;;;;10.95;76.16;101652.22;4961259;28;20379;-79
2022/12/27 00:33:25;;;;;;;;;;;;;;;10.95;76.29;101654.13;4977283;28;20303;-80
2022/12/27 00:36:13;;;;;;;;;;;;;;;11.18;74.93;101655.94;4965995;28;19915;-80
2022/12/27 00:38:57;;;;;;;;;;;;;;;11.12;75.17;101655.22;4967431;28;19918;-80
2022/12/27 00:41:42;;;;;;;;;;;;;;;11.07;75.38;101649.84;4958660;29;19915;-82
2022/12/27 00:44:26;;;;;;;;;;;;;;;11.06;75.63;101640.09;4954374;28;19915;-80
2022/12/27 00:47:10;;;;;;;;;;;;;;;11.02;76.01;101646.41;4959937;28;19914;-80
2022/12/27 00:49:55;;;;;;;;;;;;;;;10.89;76.29;101634.34;4957748;28;19914;-80
2022/12/27 00:52:39;;;;;;;;;;;;;;;10.83;76.98;101630.06;4969861;28;19922;-80
2022/12/27 00:55:24;;;;;;;;;;;;;;;10.78;77.47;101632.06;4959840;28;19919;-81
2022/12/27 00:58:09;;;;;;;;;;;;;;;10.81;77.28;101629.56;4961050;29;19918;-80
2022/12/27 01:00:53;;;;;;;;;;;;;;;10.85;77.00;101633.31;4949561;29;19918;-80
2022/12/27 01:03:38;;;;;;;;;;;;;;;10.94;76.98;101628.81;4973053;28;19914;-84
2022/12/27 01:06:24;;;;;;;;;;;;;;;11.00;76.78;101629.56;4980662;28;19911;-83
2022/12/27 01:09:09;;;;;;;;;;;;;;;10.88;76.75;101631.91;4973776;28;19914;-80
2022/12/27 01:11:53;;;;;;;;;;;;;;;11.09;76.54;101619.63;4971770;28;19914;-81
2022/12/27 01:14:38;;;;;;;;;;;;;;;11.02;76.55;101630.09;4963508;28;19914;-80
2022/12/27 01:17:22;;;;;;;;;;;;;;;10.99;76.42;101628.75;4974964;28;19926;-84
2022/12/27 01:20:07;;;;;;;;;;;;;;;11.01;76.29;101632.00;4985850;28;19915;-81
2022/12/27 01:22:53;;;;;;;;;;;;;;;11.03;76.32;101637.13;4964570;28;19915;-80
2022/12/27 01:25:37;;;;;;;;;;;;;;;11.12;76.15;101636.16;4978448;28;19914;-81
2022/12/27 01:28:22;;;;;;;;;;;;;;;10.96;76.34;101626.63;4962000;28;19914;-81
2022/12/27 01:31:08;;;;;;;;;;;;;;;11.04;76.51;101631.38;4958470;28;19914;-80
2022/12/27 01:33:54;;;;;;;;;;;;;;;11.01;76.36;101626.56;4980553;28;19914;-80
2022/12/27 01:36:38;;;;;;;;;;;;;;;11.02;76.29;101624.63;4971941;28;19911;-81
2022/12/27 01:39:23;;;;;;;;;;;;;;;11.03;76.50;101634.41;4970084;28;19914;-80
2022/12/27 01:45:25;;;;;;;;;;;;;;;11.09;75.92;101631.31;4964678;28;19914;-84
2022/12/27 01:48:12;;;;;;;;;;;;;;;11.15;75.53;101630.13;4968759;28;19915;-83
2022/12/27 01:51:02;;;;;;;;;;;;;;;11.12;75.69;101633.44;4966017;28;19914;-80
2022/12/27 01:53:48;;;;;;;;;;;;;;;11.20;75.61;101629.25;4964451;28;19914;-80
2022/12/27 01:56:32;;;;;;;;;;;;;;;11.06;75.99;101634.63;4968132;28;19915;-82
2022/12/27 01:59:17;;;;;;;;;;;;;;;11.02;76.35;101630.09;4960270;29;19915;-81
2022/12/27 02:02:02;;;;;;;;;;;;;;;11.03;76.44;101628.94;4959584;28;19914;-80
2022/12/27 02:04:47;;;;;;;;;;;;;;;11.02;76.32;101624.63;4965110;28;19915;-82
2022/12/27 02:07:37;;;;;;;;;;;;;;;10.99;76.62;101630.66;4965834;28;19915;-80
2022/12/27 02:10:23;;;;;;;;;;;;;;;10.98;76.74;101627.13;4958641;29;20204;-79
2022/12/27 02:13:08;;;;;;;;;;;;;;;10.92;76.83;101628.28;4976511;28;19914;-83
2022/12/27 02:15:52;;;;;;;;;;;;;;;10.90;77.31;101627.00;4939210;29;19915;-83
2022/12/27 02:18:36;;;;;;;;;;;;;;;10.93;77.09;101631.81;4965240;29;19918;-82
2022/12/27 02:21:24;;;;;;;;;;;;;;;10.92;76.99;101631.03;4949575;29;19915;-81
2022/12/27 02:24:09;;;;;;;;;;;;;;;10.94;77.15;101631.53;4964980;28;20395;-82
2022/12/27 02:26:53;;;;;;;;;;;;;;;10.94;76.97;101628.81;4965185;28;19914;-80
2022/12/27 02:29:52;;;;;;;;;;;;;;;10.94;76.92;101626.09;4968524;28;19914;-80
2022/12/27 02:32:42;;;;;;;;;;;;;;;10.96;77.29;101617.66;4963979;28;19915;-81
2022/12/27 02:35:37;;;;;;;;;;;;;;;10.93;76.73;101621.75;4974209;28;19914;-82
2022/12/27 02:38:31;;;;;;;;;;;;;;;10.91;77.42;101615.00;4948912;29;19919;-80
2022/12/27 02:53:54;;;;;;;;;;;;;;;11.01;76.69;101621.09;4957381;29;19918;-80
2022/12/27 02:57:07;;;;;;;;;;;;;;;10.96;77.29;101614.94;4966789;28;19910;-81
2022/12/27 03:03:25;;;;;;;;;;;;;;;10.68;78.57;101609.34;4950922;29;19915;-80
2022/12/27 03:06:40;;;;;;;;;;;;;;;10.67;78.93;101620.50;4963724;29;19915;-79
2022/12/27 03:18:39;;;;;;;;;;;;;;;10.70;79.49;101617.22;4976869;28;19923;-81
2022/12/27 03:27:43;;;;;;;;;;;;;;;10.70;80.16;101625.38;4964842;28;19914;-80
2022/12/27 03:33:32;;;;;;;;;;;;;;;10.77;79.50;101619.56;4967349;29;19918;-83
2022/12/27 03:39:23;;;;;;;;;;;;;;;10.75;80.12;101619.03;4962721;28;19918;-81
2022/12/27 03:45:19;;;;;;;;;;;;;;;10.72;80.34;101623.16;4975145;28;19922;-82
2022/12/27 03:48:05;;;;;;;;;;;;;;;10.77;80.17;101631.25;4974730;28;19914;-82
2022/12/27 03:50:53;;;;;;;;;;;;;;;10.76;79.95;101632.38;4946050;29;19915;-79
2022/12/27 03:53:41;;;;;;;;;;;;;;;10.67;80.67;101631.38;4979396;28;19915;-80
2022/12/27 03:56:26;;;;;;;;;;;;;;;10.60;81.13;101630.94;4959741;29;19914;-79
2022/12/27 03:59:11;;;;;;;;;;;;;;;10.62;81.18;101623.28;4965455;28;19918;-80
2022/12/27 04:01:56;;;;;;;;;;;;;;;10.70;81.19;101623.47;4981876;28;19918;-82
2022/12/27 04:04:40;;;;;;;;;;;;;;;10.67;81.45;101626.75;4966104;28;19919;-79
2022/12/27 04:07:25;;;;;;;;;;;;;;;10.54;82.33;101621.25;4977296;28;19918;-79
2022/12/27 04:34:46;;;;;;;116.72;43.08;;;;;;;10.53;79.55;101628.59;4959410;28;20043;-81
2022/12/27 04:37:30;;;;;;;104.65;41.10;;;;;;;10.56;79.64;101619.03;4950033;29;20035;-82
2022/12/27 04:55:35;;;;;;;69.47;30.45;;;;;;;10.71;76.23;101627.00;4957220;28;20043;-82
2022/12/27 04:58:21;;;;;;;47.88;25.05;;;;;;;10.71;76.33;101624.28;4956477;29;20047;-81
2022/12/27 05:04:10;;;;;;;57.83;32.10;;;;;;;10.73;76.33;101620.16;4941611;29;20043;-81
2022/12/27 05:06:56;;;;;;;71.50;32.67;;;;;;;10.73;76.08;101619.34;4950458;29;20043;-84
2022/12/27 05:15:48;;;;;;;79.00;33.45;;;;;;;10.62;76.40;101628.72;4950863;28;20047;-81
2022/12/27 05:18:33;;;;;;;69.30;32.55;;;;;;;10.65;75.93;101631.69;4949754;28;20036;-82
2022/12/27 05:21:18;;;;;;;55.42;27.60;;;;;;;10.66;76.14;101633.31;4947123;29;20067;-81
2022/12/27 05:27:07;;;;;;;75.13;32.03;;;;;;;10.65;75.79;101639.03;4952863;28;20043;-83
2022/12/27 05:29:52;;;;;;;61.25;26.50;;;;;;;10.58;76.14;101633.97;4942125;29;20047;-81
2022/12/27 05:32:38;;;;;;;73.60;30.98;;;;;;;10.48;76.04;101625.13;4966034;28;20044;-83
2022/12/27 05:35:23;;;;;;;76.85;36.10;;;;;;;10.48;76.09;101636.81;4953651;28;20047;-81
2022/12/27 05:38:08;;;;;;;68.32;29.67;;;;;;;10.49;76.79;101626.75;4955930;28;20043;-83
2022/12/27 05:40:56;;;;;;;;;;;;;;;10.50;76.42;101626.47;4954045;28;20047;-80
2022/12/27 05:43:41;;;;;;;96.95;33.97;;;;;;;10.37;77.13;101623.63;4948846;28;19914;-83
2022/12/27 05:46:26;;;;;;;50.60;22.80;;;;;;;10.25;76.52;101624.88;4953776;29;20047;-82
2022/12/27 05:49:11;;;;;;;51.05;23.40;;;;;;;10.31;76.04;101630.25;4947287;28;20048;-82
2022/12/27 05:51:56;;;;;;;49.78;25.10;;;;;;;10.23;73.79;101632.50;4950673;28;20051;-82
2022/12/27 05:54:41;;;;;;;;;;;;;;;10.11;72.43;101632.06;4950862;28;20412;-80
2022/12/27 05:57:25;;;;;;;35.45;18.77;;;;;;;9.99;71.67;101631.66;4946004;29;20384;-82
2022/12/27 06:00:11;;;;;;;;;;;;;;;10.07;71.36;101639.19;4947420;28;20058;-83
2022/12/27 06:03:00;;;;;;;33.85;16.83;;;;;;;10.00;70.14;101644.16;4941791;28;20541;-83
2022/12/27 06:05:46;;;;;;;33.40;18.05;;;;;;;9.84;71.48;101646.22;4945717;29;20051;-81
2022/12/27 06:08:33;;;;;;;32.78;17.33;;;;;;;9.98;71.80;101642.81;4965319;28;20047;-83
2022/12/27 06:11:18;;;;;;;31.20;16.15;;;;;;;9.83;70.31;101643.78;4947665;28;20055;-81
2022/12/27 06:14:03;;;;;;;31.80;17.55;;;;;;;9.75;69.83;101655.28;4953695;28;20050;-82
2022/12/27 06:16:47;;;;;;;26.48;15.85;;;;;;;9.73;68.92;101652.03;4943291;29;20437;-80
2022/12/27 06:19:32;;;;;;;19.98;11.55;;;;;;;9.67;68.19;101647.75;4954578;28;20054;-81
2022/12/27 06:22:17;;;;;;;22.67;13.18;;;;;;;9.45;68.45;101654.44;4950986;29;20050;-83
2022/12/27 06:25:03;;;;;;;29.02;15.30;;;;;;;9.33;69.70;101656.75;4948979;29;20055;-84
2022/12/27 06:27:48;;;;;;;24.52;12.40;;;;;;;9.30;70.30;101656.47;4948670;28;20046;-81
2022/12/27 06:30:32;;;;;;;20.83;11.65;;;;;;;9.33;70.14;101664.06;4944221;28;20062;-83
2022/12/27 06:33:18;;;;;;;32.45;16.05;;;;;;;9.40;69.48;101662.63;4948464;28;20047;-83
2022/12/27 06:36:08;;;;;;;31.35;15.68;;;;;;;9.43;69.38;101662.09;4944793;29;20042;-82
2022/12/27 06:38:53;;;;;;;31.90;16.52;;;;;;;9.38;69.08;101681.13;4953688;28;20042;-83
2022/12/27 06:41:37;;;;;;;32.25;16.55;;;;;;;9.37;69.75;101690.38;4958000;28;20054;-82
2022/12/27 06:44:22;;;;;;;21.73;11.98;;;;;;;9.39;69.51;101693.63;4955675;28;20058;-82
2022/12/27 06:47:07;;;;;;;23.10;12.65;;;;;;;9.40;69.74;101688.97;4952361;28;20424;-80
2022/12/27 06:49:52;;;;;;;;;;;;;;;9.40;69.87;101694.41;4957267;28;20043;-82
2022/12/27 06:52:37;;;;;;;30.70;17.13;;;;;;;9.35;70.03;101697.97;4947319;28;19914;-81
2022/12/27 06:55:22;;;;;;;35.78;17.42;;;;;;;9.30;69.44;101699.91;4942776;28;20046;-80
2022/12/27 06:58:06;;;;;;;26.35;13.93;;;;;;;9.25;70.00;101703.47;4954761;28;20432;-84
2022/12/27 07:00:51;;;;;;;23.88;12.82;;;;;;;9.20;69.69;101698.06;4948744;28;20046;-81
2022/12/27 07:03:36;;;;;;;29.58;14.15;;;;;;;9.18;69.76;101705.69;4952216;28;20535;-77
2022/12/27 07:06:24;;;;;;;33.70;17.83;;;;;;;9.18;69.59;101713.03;4949840;28;20531;-83
2022/12/27 07:09:09;;;;;;;47.85;24.10;;;;;;;9.10;70.88;101727.97;4950447;28;20047;-83
2022/12/27 07:11:53;;;;;;;42.42;22.05;;;;;;;9.07;71.41;101736.69;4944958;29;20050;-80
2022/12/27 07:14:38;;;;;;;45.00;24.58;;;;;;;9.17;71.14;101723.06;4948547;28;20062;-81
2022/12/27 07:17:23;;;;;;;32.63;16.13;;;;;;;9.06;70.97;101726.94;4952047;29;20424;-84
2022/12/27 07:20:08;;;;;;;;;;;;;;;9.05;71.55;101733.44;4942166;29;20062;-81
2022/12/27 07:22:52;;;;;;;35.33;18.80;;;;;;;9.06;71.91;101731.53;4956989;29;19914;-81
2022/12/27 07:25:37;;;;;;;31.33;16.17;;;;;;;9.10;71.32;101733.41;4948616;28;20062;-82
2022/12/27 07:28:22;;;;;;;40.28;21.27;;;;;;;9.11;71.83;101740.47;4954390;28;20047;-82
2022/12/27 07:31:09;;;;;;;24.98;14.43;;;;;;;9.11;71.02;101739.66;4953638;28;20069;-80
2022/12/27 07:33:56;;;;;;;36.88;20.05;;;;;;;9.06;71.15;101737.78;4955246;28;20417;-82
2022/12/27 07:36:41;;;;;;;44.45;25.23;;;;;;;9.07;70.93;101742.13;4953976;29;20520;-80
2022/12/27 07:39:26;;;;;;;37.38;18.17;;;;;;;9.02;71.20;101751.09;4950082;29;20054;-79
2022/12/27 07:42:11;;;;;;;29.70;17.65;;;;;;;9.05;71.57;101749.72;4942885;29;20129;-79
2022/12/27 07:44:55;;;;;;;30.05;17.17;;;;;;;9.11;70.85;101747.78;4952701;29;20416;-79
2022/12/27 07:47:40;;;;;;;29.63;16.38;;;;;;;9.08;70.80;101751.88;4947366;29;20054;-78
2022/12/27 07:50:25;;;;;;;30.13;16.48;;;;;;;9.07;70.79;101760.31;4962132;28;20519;-82
2022/12/27 07:53:10;;;;;;;27.42;15.73;;;;;;;8.96;71.48;101762.25;4946045;29;20527;-78
2022/12/27 07:55:55;;;;;;;45.63;23.02;;;;;;;8.98;71.04;101771.75;4951819;28;20440;-79
2022/12/27 07:58:45;;;;;;;39.55;20.67;;;;;;;9.08;71.20;101773.59;4959006;28;20071;-79
2022/12/27 08:04:38;;;;;;;38.50;22.33;;;;;;;9.21;72.02;101781.09;4951845;28;20523;-81
2022/12/27 08:07:24;;;;;;;44.45;19.58;;;;;;;9.11;72.23;101767.59;4943756;29;20049;-78
2022/12/27 08:10:09;;;;;;;38.33;19.65;;;;;;;9.05;73.01;101774.13;4948187;29;20051;-78
2022/12/27 08:12:54;;;;;;;34.85;19.80;;;;;;;8.88;73.60;101782.66;4953241;28;20413;-78
2022/12/27 08:15:41;;;;;;;34.67;17.83;;;;;;;8.83;73.79;101777.25;4948102;28;20610;-79
2022/12/27 08:18:26;;;;;;;42.35;24.70;;;;;;;8.98;72.98;101784.50;4950301;29;20050;-80
2022/12/27 08:21:11;;;;;;;41.35;20.30;;;;;;;9.08;72.57;101784.44;4960577;28;20429;-80
2022/12/27 08:23:55;;;;;;;45.38;19.42;;;;;;;9.18;72.43;101784.41;4966153;28;20050;-78
2022/12/27 08:26:40;;;;;;;42.45;23.70;;;;;;;9.32;72.34;101784.59;4949589;29;20050;-80
2022/12/27 08:29:24;;;;;;;37.47;18.75;;;;;;;9.38;72.44;101783.47;4948065;28;20051;-80
2022/12/27 08:32:09;;;;;;;59.60;31.13;;;;;;;9.36;73.00;101785.63;4959232;28;20054;-80
2022/12/27 08:34:54;;;;;;;32.33;20.17;;;;;;;9.49;73.36;101786.94;4955234;28;20043;-79
2022/12/27 08:37:38;;;;;;;46.42;24.10;;;;;;;9.52;73.44;101789.06;4955851;28;21535;-81
2022/12/27 08:40:23;;;;;;;;;;;;;;;9.79;75.17;101794.88;4940137;29;20054;-86
2022/12/27 08:43:09;;;;;;;52.63;25.75;;;;;;;10.16;74.20;101795.09;4960900;28;20413;-83
2022/12/27 08:46:01;;;;;;;46.72;22.75;;;;;;;10.42;71.46;101811.19;4956347;28;20475;-82
2022/12/27 08:48:49;;;;;;;46.55;22.35;;;;;;;10.32;70.91;101806.66;4958341;29;20039;-85
2022/12/27 08:51:34;;;;;;;57.15;23.55;;;;;;;10.58;73.26;101804.50;4954474;28;20043;-85
2022/12/27 08:54:19;;;;;;;;;;;;;;;9.83;73.04;101809.50;4951537;28;20047;-88
2022/12/27 08:57:04;;;;;;;49.17;22.67;;;;;;;10.75;74.43;101810.28;4947899;29;19914;-86
2022/12/27 08:59:48;;;;;;;35.58;19.30;;;;;;;11.08;72.51;101817.50;4944565;29;20051;-85
2022/12/27 09:02:44;;;;;;;42.00;20.25;;;;;;;11.19;70.86;101814.66;4952293;28;20031;-86
2022/12/27 09:05:29;;;;;;;55.45;25.45;;;;;;;11.11;70.08;101816.94;4952301;28;20047;-84
2022/12/27 09:08:13;;;;;;;54.45;26.33;;;;;;;11.27;70.15;101819.47;4962508;28;20043;-83
2022/12/27 09:11:08;;;;;;;40.83;20.55;;;;;;;11.36;69.03;101821.25;4953559;28;20420;-84
2022/12/27 09:13:53;;;;;;;49.15;24.60;;;;;;;11.36;69.19;101829.41;4954327;28;20035;-83
2022/12/27 09:16:38;;;;;;;53.67;25.58;;;;;;;11.51;70.01;101833.84;4951865;28;20048;-85
2022/12/27 09:19:23;;;;;;;;;;;;;;;12.34;68.36;101827.66;4973398;28;20027;-88
2022/12/27 09:22:07;;;;;;;59.47;25.98;;;;;;;12.60;66.32;101833.44;4961137;28;19933;-85
2022/12/27 09:24:52;;;;;;;54.45;27.13;;;;;;;12.58;64.98;101832.94;4961944;28;20047;-88
2022/12/27 09:27:37;;;;;;;47.95;27.08;;;;;;;13.08;63.58;101847.53;4962169;29;20051;-88
2022/12/27 09:30:22;;;;;;;48.78;25.25;;;;;;;12.17;65.78;101838.28;4969353;28;20043;-89
2022/12/27 09:33:08;;;;;;;44.05;21.63;;;;;;;11.92;67.42;101836.78;4974934;28;20055;-88
2022/12/27 09:35:52;;;;;;;55.60;26.70;;;;;;;11.84;68.11;101838.25;4962192;28;20039;-87
2022/12/27 09:38:37;;;;;;;;;;;;;;;12.35;67.59;101845.59;4967014;28;20043;-83
2022/12/27 09:41:53;;;;;;;56.78;26.23;;;;;;;11.83;66.58;101844.84;4943716;29;19915;-85
2022/12/27 09:44:55;;;;;;;48.92;26.10;;;;;;;11.99;67.92;101848.13;4950232;28;20047;-84
2022/12/27 09:47:52;;;;;;;50.67;25.05;;;;;;;12.00;66.80;101839.66;4939741;29;20047;-82
2022/12/27 09:50:44;;;;;;;55.35;26.15;;;;;;;12.07;66.92;101838.47;4960510;28;20043;-84
2022/12/27 09:53:40;;;;;;;51.42;27.90;;;;;;;12.07;67.00;101838.47;4960550;28;20512;-86
2022/12/27 09:56:29;;;;;;;58.65;30.48;;;;;;;11.61;68.83;101835.59;4946351;28;20035;-85
2022/12/27 09:59:29;;;;;;;48.85;26.48;;;;;;;11.91;68.05;101830.53;4944649;28;20077;-82
2022/12/27 10:02:21;;;;;;;56.55;30.08;;;;;;;11.64;69.88;101833.09;4965861;28;20043;-83
2022/12/27 10:05:19;;;;;;;58.45;27.83;;;;;;;12.03;69.41;101827.34;4950448;28;20520;-83
2022/12/27 10:08:16;;;;;;;50.95;27.67;;;;;;;12.90;65.64;101834.78;4954389;28;20666;-83
2022/12/27 10:11:37;;;;;;;56.75;27.42;;;;;;;12.53;66.96;101820.19;4956324;28;20035;-84
2022/12/27 10:14:40;;;;;;;48.45;25.77;;;;;;;13.63;65.41;101826.41;4946697;28;20050;-86
2022/12/27 10:17:33;;;;;;;56.33;29.98;;;;;;;12.84;65.15;101821.25;4961675;28;20035;-83
2022/12/27 10:20:28;;;;;;;54.95;27.58;;;;;;;13.34;63.42;101825.97;4954966;29;20405;-83
2022/12/27 10:23:19;;;;;;;60.25;30.45;;;;;;;12.82;64.34;101818.00;4959670;28;20504;-85
2022/12/27 10:26:10;;;;;;;56.03;27.67;;;;;;;13.81;61.86;101821.91;4944409;28;20047;-84
2022/12/27 10:29:02;;;;;;;58.85;30.75;;;;;;;13.60;62.72;101810.63;4960349;28;20401;-83
2022/12/27 10:31:47;;;;;;;59.60;29.83;;;;;;;13.74;61.25;101810.59;4953275;29;20047;-84
2022/12/27 10:34:32;;;;;;;48.92;25.70;;;;;;;13.35;64.24;101816.69;4946014;29;20048;-84
2022/12/27 10:37:17;;;;;;;;;;;;;;;13.76;61.93;101817.38;4956796;28;20051;-83
2022/12/27 10:40:13;;;;;;;52.63;26.52;;;;;;;14.52;60.50;101810.81;4950709;28;19918;-83
2022/12/27 10:43:13;;;;;;;50.53;26.58;;;;;;;15.35;58.09;101811.69;4959089;28;20057;-83
2022/12/27 10:46:14;;;;;;;53.40;29.08;;;;;;;14.27;58.73;101813.38;4939186;28;20035;-83
2022/12/27 10:49:05;;;;;;;56.10;30.65;;;;;;;13.97;60.50;101810.28;4951652;28;20035;-85
2022/12/27 10:51:53;;;;;;;57.30;30.63;;;;;;;13.92;61.14;101807.66;4953762;28;20043;-86
2022/12/27 10:54:54;;;;;;;56.10;27.98;;;;;;;14.96;58.16;101807.13;4957702;28;20062;-84
2022/12/27 10:57:38;;;;;;;63.47;31.83;;;;;;;14.58;57.54;101799.72;4955137;28;20500;-88
2022/12/27 11:00:24;;;;;;;53.65;27.90;;;;;;;14.51;59.80;101809.19;4956074;28;20039;-83
2022/12/27 11:03:17;;;;;;;61.83;32.28;;;;;;;15.26;56.04;101808.16;4962479;28;20047;-86
2022/12/27 11:06:17;;;;;;;57.42;31.13;;;;;;;15.69;54.58;101799.19;4966126;28;20051;-85
2022/12/27 11:09:17;;;;;;;63.58;31.38;;;;;;;14.26;59.37;101804.38;4955742;28;20039;-83
2022/12/27 11:12:23;;;;;;;66.70;33.30;;;;;;;14.44;59.33;101803.34;4966370;28;20048;-87
2022/12/27 11:15:12;;;;;;;62.97;32.20;;;;;;;15.21;58.77;101789.13;4953961;29;20035;-88
2022/12/27 11:18:00;;;;;;;64.13;35.60;;;;;;;15.41;57.44;101784.94;4958259;28;20051;-88
2022/12/27 11:20:51;;;;;;;66.30;36.17;;;;;;;15.24;56.97;101793.94;4968887;29;20042;-85
2022/12/27 11:23:44;;;;;;;67.78;35.63;;;;;;;14.91;58.82;101800.97;4968275;29;20042;-80
2022/12/27 11:26:36;;;;;;;66.88;34.22;;;;;;;14.23;60.82;101795.94;4961660;28;20035;-81
2022/12/27 11:29:23;;;;;;;66.15;34.88;;;;;;;13.91;61.59;101797.88;4946076;28;20496;-82
2022/12/27 11:32:08;;;;;;;65.40;37.67;;;;;;;13.77;62.61;101793.53;4947215;29;20043;-83
2022/12/27 11:34:54;;;;;;;;;;;;;;;13.64;62.87;101795.22;4956755;29;20043;-84
2022/12/27 11:37:39;;;;;;;;;;;;;;;13.57;63.46;101792.91;4943489;28;19915;-86
2022/12/27 11:40:33;;;;;;;71.32;37.38;;;;;;;13.47;63.92;101790.41;4955678;28;19919;-84
2022/12/27 11:43:20;;;;;;;67.75;36.85;;;;;;;13.41;64.01;101790.88;4951648;28;20035;-82
2022/12/27 11:46:15;;;;;;;68.72;36.92;;;;;;;13.42;64.45;101789.72;4964027;29;20035;-86
2022/12/27 11:49:02;;;;;;;52.55;28.52;;;;;;;13.46;63.90;101783.34;4949570;29;20036;-83
2022/12/27 11:51:50;;;;;;;69.70;37.10;;;;;;;13.38;63.97;101786.81;4951063;29;20051;-83
2022/12/27 11:54:53;;;;;;;65.05;33.70;;;;;;;13.49;63.55;101777.28;4950150;29;20035;-82
2022/12/27 11:58:21;;;;;;;64.13;35.15;;;;;;;13.49;63.23;101777.28;4948022;29;20055;-80
2022/12/27 12:01:32;;;;;;;66.35;34.75;;;;;;;13.49;63.27;101773.72;4954706;28;20689;-81
2022/12/27 12:05:04;;;;;;;69.18;34.92;;;;;;;13.43;63.65;101772.22;4966509;28;20064;-82
2022/12/27 12:08:12;;;;;;;69.25;34.90;;;;;;;13.42;63.62;101765.94;4951238;29;20039;-83
2022/12/27 12:11:13;;;;;;;56.83;34.20;;;;;;;13.37;63.29;101763.31;4959283;28;20436;-82
2022/12/27 12:14:17;;;;;;;57.35;32.88;;;;;;;13.35;63.56;101764.75;4956493;28;20640;-81
2022/12/27 12:17:39;;;;;;;60.40;34.35;;;;;;;13.36;63.05;101764.44;4955861;28;20043;-82
2022/12/27 12:20:57;;;;;;;70.00;33.47;;;;;;;13.38;63.13;101762.22;4944889;29;20048;-81
2022/12/27 12:24:05;;;;;;;66.97;34.45;;;;;;;13.38;63.41;101762.22;4949440;28;20048;-80
2022/12/27 12:27:28;;;;;;;65.50;33.60;;;;;;;13.42;63.07;101748.75;4954792;28;20039;-82
2022/12/27 12:30:41;;;;;;;60.13;33.40;;;;;;;13.44;62.83;101750.06;4951769;29;20035;-81
2022/12/27 12:33:34;;;;;;;65.03;34.67;;;;;;;13.32;63.24;101752.50;4945259;29;20500;-81
2022/12/27 12:36:29;;;;;;;68.45;35.28;;;;;;;13.45;63.17;101748.94;4954021;28;20052;-80
2022/12/27 12:39:42;;;;;;;62.05;33.20;;;;;;;13.54;62.38;101744.34;4956609;28;20043;-81
2022/12/27 12:42:38;;;;;;;60.47;33.55;;;;;;;13.41;63.05;101747.16;4957832;28;20043;-79
2022/12/27 12:45:54;;;;;;;63.60;33.28;;;;;;;13.38;63.31;101736.81;4945797;29;20039;-80
2022/12/27 12:48:51;;;;;;;51.80;27.23;;;;;;;13.31;63.95;101739.19;4957247;28;20040;-82
2022/12/27 12:51:48;;;;;;;60.95;33.33;;;;;;;13.45;63.11;101731.75;4951602;28;20401;-81
2022/12/27 12:54:42;;;;;;;175.50;43.10;;;;;;;13.55;62.84;101728.78;4940982;29;20413;-82
2022/12/27 12:57:58;;;;;;;1999.90;576.67;;;;;;;13.54;63.12;101729.88;4950342;29;20043;-81
2022/12/27 13:00:55;;;;;;;171.38;56.38;;;;;;;13.52;62.46;101727.44;4962094;28;20036;-82
2022/12/27 13:03:47;;;;;;;344.30;62.17;;;;;;;13.48;63.29;101729.19;4949822;28;20047;-83
2022/12/27 13:07:39;;;;;;;313.65;56.85;;;;;;;13.50;62.95;101729.69;4957802;28;20043;-83
2022/12/27 13:10:41;;;;;;;186.23;43.47;;;;;;;13.55;63.07;101720.56;4955310;28;20047;-84
2022/12/27 13:13:38;;;;;;;71.65;33.72;;;;;;;13.52;63.18;101715.72;4961848;28;20039;-83
2022/12/27 13:17:31;;;;;;;127.80;39.50;;;;;;;13.57;63.41;101721.84;4961436;28;20043;-83
2022/12/27 13:20:59;;;;;;;77.07;34.33;;;;;;;13.63;63.41;101717.91;4961641;28;20043;-85
2022/12/27 13:24:06;;;;;;;143.48;36.72;;;;;;;13.74;63.53;101717.63;4961119;28;20502;-84
2022/12/27 13:27:05;;;;;;;92.22;33.10;;;;;;;13.74;62.71;101718.44;4942409;29;20043;-83
2022/12/27 13:29:59;;;;;;;72.63;34.35;;;;;;;13.81;63.11;101720.75;4967665;28;20039;-82
2022/12/27 13:33:14;;;;;;;117.10;38.20;;;;;;;13.97;62.93;101721.94;4942584;28;20052;-83
2022/12/27 13:36:17;;;;;;;169.13;40.05;;;;;;;14.03;63.13;101721.50;4949088;28;20043;-83
2022/12/27 13:39:33;;;;;;;125.97;34.92;;;;;;;14.21;62.95;101727.09;4961222;28;20038;-86
2022/12/27 13:42:36;;;;;;;;;;;;;;;14.30;62.14;101720.53;4944479;29;20059;-82
2022/12/27 13:45:35;;;;;;;112.22;36.45;;;;;;;14.27;62.46;101715.69;4950681;28;20388;-83
2022/12/27 13:49:07;;;;;;;95.03;32.80;;;;;;;14.28;61.38;101720.03;4960445;28;20047;-82
2022/12/27 13:51:57;;;;;;;70.88;33.13;;;;;;;14.28;61.28;101721.94;4960807;28;20047;-83
2022/12/27 13:54:45;;;;;;;76.57;32.33;;;;;;;14.39;61.33;101724.13;4971404;28;20043;-83
2022/12/27 13:58:03;;;;;;;67.97;31.67;;;;;;;14.42;60.89;101722.72;4961126;28;20039;-83
2022/12/27 14:01:18;;;;;;;70.57;32.33;;;;;;;14.53;60.90;101727.56;4956212;28;20047;-83
2022/12/27 14:04:41;;;;;;;50.53;23.77;;;;;;;14.51;59.97;101726.28;4947155;29;20047;-84
2022/12/27 14:07:44;;;;;;;58.67;32.22;;;;;;;14.57;60.14;101729.69;4961354;28;20508;-83
2022/12/27 14:10:41;;;;;;;63.75;29.95;;;;;;;14.62;60.36;101724.88;4956727;28;20047;-84
2022/12/27 14:13:42;;;;;;;77.65;32.78;;;;;;;14.62;59.45;101726.78;4946136;29;20031;-85
2022/12/27 14:16:40;;;;;;;74.78;30.88;;;;;;;14.67;59.64;101732.13;4950324;28;20047;-84
2022/12/27 14:19:44;;;;;;;69.45;32.50;;;;;;;14.78;60.04;101736.19;4960659;28;20039;-84
2022/12/27 14:22:34;;;;;;;61.90;30.17;;;;;;;14.73;59.33;101733.59;4959908;28;20043;-83
2022/12/27 14:25:28;;;;;;;67.63;31.52;;;;;;;14.74;59.17;101733.25;4948399;28;20039;-80
2022/12/27 14:28:27;;;;;;;66.57;29.65;;;;;;;14.77;59.33;101740.03;4939733;29;20501;-83
2022/12/27 14:31:50;;;;;;;85.22;29.55;;;;;;;14.92;59.73;101747.81;4950843;28;20043;-82
2022/12/27 14:35:03;;;;;;;76.15;31.80;;;;;;;15.05;59.35;101741.38;4946543;28;20551;-83
2022/12/27 14:38:10;;;;;;;79.97;31.45;;;;;;;14.96;58.54;101744.13;4958392;28;20086;-82
2022/12/27 14:41:34;;;;;;;64.28;29.20;;;;;;;14.99;58.62;101750.88;4950596;28;20043;-81
2022/12/27 14:45:04;;;;;;;66.75;30.63;;;;;;;15.03;58.75;101757.34;4951076;28;20047;-81
2022/12/27 14:48:01;;;;;;;67.15;30.60;;;;;;;14.97;58.34;101758.63;4944095;28;20052;-84
2022/12/27 14:51:12;;;;;;;65.13;30.08;;;;;;;14.96;58.25;101757.81;4947081;28;20028;-81
2022/12/27 14:54:30;;;;;;;70.78;30.85;;;;;;;14.91;58.40;101757.97;4947559;28;20039;-82
2022/12/27 14:57:39;;;;;;;61.95;28.88;;;;;;;14.86;58.59;101749.09;4945572;28;20036;-82
2022/12/27 15:00:28;;;;;;;69.07;32.63;;;;;;;14.78;58.67;101760.84;4949561;28;20043;-85
2022/12/27 15:03:56;;;;;;;58.63;30.23;;;;;;;14.71;58.62;101758.53;4944778;28;20043;-84
2022/12/27 15:06:53;;;;;;;53.40;29.33;;;;;;;14.64;58.79;101760.13;4945945;29;20043;-84
2022/12/27 15:10:02;;;;;;;56.40;29.13;;;;;;;14.60;59.03;101762.69;4955552;28;20524;-85